sensor_id;sensor_type;location;lat;lon;timestamp;pressure;altitude;pressure_sealevel;temperature;humidity
12146;BME280;6136;47.032;15.398;2022-12-29T00:01:10;97812.81;;;-2.08;100.00
12146;BME280;6136;47.032;15.398;2022-12-29T00:03:38;97811.94;;;-2.10;100.00
12146;BME280;6136;47.032;15.398;2022-12-29T00:06:06;97805.91;;;-2.13;100.00
12146;BME280;6136;47.032;15.398;2022-12-29T00:08:35;97812.88;;;-2.18;100.00
12146;BME280;6136;47.032;15.398;2022-12-29T00:11:11;97818.06;;;-2.17;100.00
12146;BME280;6136;47.032;15.398;2022-12-29T00:13:41;97805.97;;;-2.19;100.00
12146;BME280;6136;47.032;15.398;2022-12-29T00:16:28;97816.38;;;-2.22;100.00
12146;BME280;6136;47.032;15.398;2022-12-29T00:18:57;97812.03;;;-2.19;100.00
12146;BME280;6136;47.032;15.398;2022-12-29T00:21:25;97813.75;;;-2.21;100.00
12146;BME280;6136;47.032;15.398;2022-12-29T00:24:14;97810.34;;;-2.23;100.00
12146;BME280;6136;47.032;15.398;2022-12-29T00:27:10;97813.81;;;-2.27;100.00
12146;BME280;6136;47.032;15.398;2022-12-29T00:29:58;97813.81;;;-2.27;100.00
12146;BME280;6136;47.032;15.398;2022-12-29T00:32:43;97806.03;;;-2.27;100.00
12146;BME280;6136;47.032;15.398;2022-12-29T00:35:33;97802.63;;;-2.35;100.00
12146;BME280;6136;47.032;15.398;2022-12-29T00:38:04;97796.56;;;-2.31;100.00
12146;BME280;6136;47.032;15.398;2022-12-29T00:41:02;97801.81;;;-2.40;100.00
12146;BME280;6136;47.032;15.398;2022-12-29T00:43:48;97788.03;;;-2.45;100.00
12146;BME280;6136;47.032;15.398;2022-12-29T00:46:39;97793.22;;;-2.51;100.00
12146;BME280;6136;47.032;15.398;2022-12-29T00:49:10;97787.22;;;-2.53;100.00
12146;BME280;6136;47.032;15.398;2022-12-29T00:51:57;97779.44;;;-2.55;100.00
12146;BME280;6136;47.032;15.398;2022-12-29T00:54:28;97768.25;;;-2.60;100.00
12146;BME280;6136;47.032;15.398;2022-12-29T00:56:56;97783.75;;;-2.57;100.00
12146;BME280;6136;47.032;15.398;2022-12-29T00:59:25;97788.13;;;-2.65;100.00
12146;BME280;6136;47.032;15.398;2022-12-29T01:01:57;97797.63;;;-2.59;100.00
12146;BME280;6136;47.032;15.398;2022-12-29T01:04:27;97787.22;;;-2.55;100.00
12146;BME280;6136;47.032;15.398;2022-12-29T01:06:55;97781.22;;;-2.64;100.00
12146;BME280;6136;47.032;15.398;2022-12-29T01:09:24;97782.94;;;-2.65;100.00
12146;BME280;6136;47.032;15.398;2022-12-29T01:12:10;97785.56;;;-2.66;100.00
12146;BME280;6136;47.032;15.398;2022-12-29T01:14:39;97801.16;;;-2.74;100.00
12146;BME280;6136;47.032;15.398;2022-12-29T01:17:09;97795.09;;;-2.68;100.00
12146;BME280;6136;47.032;15.398;2022-12-29T01:19:38;97802.03;;;-2.70;100.00
12146;BME280;6136;47.032;15.398;2022-12-29T01:22:06;97793.31;;;-2.65;100.00
12146;BME280;6136;47.032;15.398;2022-12-29T01:24:34;97784.72;;;-2.68;100.00
12146;BME280;6136;47.032;15.398;2022-12-29T01:27:02;97805.47;;;-2.68;100.00
12146;BME280;6136;47.032;15.398;2022-12-29T01:29:31;97798.53;;;-2.66;100.00
12146;BME280;6136;47.032;15.398;2022-12-29T01:31:59;97808.09;;;-2.75;100.00
12146;BME280;6136;47.032;15.398;2022-12-29T01:34:29;97791.66;;;-2.74;100.00
12146;BME280;6136;47.032;15.398;2022-12-29T01:36:57;97802.91;;;-2.75;100.00
12146;BME280;6136;47.032;15.398;2022-12-29T01:39:25;97806.34;;;-2.74;100.00
12146;BME280;6136;47.032;15.398;2022-12-29T01:41:53;97802.06;;;-2.77;100.00
12146;BME280;6136;47.032;15.398;2022-12-29T01:44:55;97796.06;;;-2.83;100.00
12146;BME280;6136;47.032;15.398;2022-12-29T01:47:35;97790.88;;;-2.85;100.00
12146;BME280;6136;47.032;15.398;2022-12-29T01:50:09;97783.09;;;-2.83;100.00
12146;BME280;6136;47.032;15.398;2022-12-29T01:52:43;97782.22;;;-2.87;100.00
12146;BME280;6136;47.032;15.398;2022-12-29T01:55:15;97788.28;;;-2.88;100.00
12146;BME280;6136;47.032;15.398;2022-12-29T01:57:47;97775.34;;;-2.92;100.00
12146;BME280;6136;47.032;15.398;2022-12-29T02:00:17;97765.84;;;-2.95;100.00
12146;BME280;6136;47.032;15.398;2022-12-29T02:02:49;97766.69;;;-2.88;100.00
12146;BME280;6136;47.032;15.398;2022-12-29T02:05:26;97764.97;;;-2.91;100.00
12146;BME280;6136;47.032;15.398;2022-12-29T02:07:56;97761.56;;;-3.00;100.00
12146;BME280;6136;47.032;15.398;2022-12-29T02:10:26;97762.34;;;-2.86;100.00
12146;BME280;6136;47.032;15.398;2022-12-29T02:12:56;97765.84;;;-2.92;100.00
12146;BME280;6136;47.032;15.398;2022-12-29T02:15:35;97763.28;;;-2.96;100.00
12146;BME280;6136;47.032;15.398;2022-12-29T02:18:20;97752.06;;;-3.00;100.00
12146;BME280;6136;47.032;15.398;2022-12-29T02:21:22;97758.94;;;-2.96;100.00
12146;BME280;6136;47.032;15.398;2022-12-29T02:24:40;97741.69;;;-2.97;100.00
12146;BME280;6136;47.032;15.398;2022-12-29T02:30:15;97732.25;;;-3.04;100.00
12146;BME280;6136;47.032;15.398;2022-12-29T02:32:54;97740.03;;;-3.07;100.00
12146;BME280;6136;47.032;15.398;2022-12-29T02:35:33;97722.78;;;-3.17;100.00
12146;BME280;6136;47.032;15.398;2022-12-29T02:38:12;97743.47;;;-3.09;100.00
12146;BME280;6136;47.032;15.398;2022-12-29T02:40:49;97731.38;;;-3.09;100.00
12146;BME280;6136;47.032;15.398;2022-12-29T02:43:25;97746.94;;;-3.09;100.00
12146;BME280;6136;47.032;15.398;2022-12-29T02:45:58;97742.63;;;-3.10;100.00
12146;BME280;6136;47.032;15.398;2022-12-29T02:48:32;97730.56;;;-3.13;100.00
12146;BME280;6136;47.032;15.398;2022-12-29T02:51:10;97725.31;;;-3.05;100.00
12146;BME280;6136;47.032;15.398;2022-12-29T02:53:41;97729.59;;;-3.01;100.00
12146;BME280;6136;47.032;15.398;2022-12-29T02:56:27;97727.91;;;-3.05;100.00
12146;BME280;6136;47.032;15.398;2022-12-29T02:58:55;97716.69;;;-3.04;100.00
12146;BME280;6136;47.032;15.398;2022-12-29T03:01:32;97727.91;;;-3.05;100.00
12146;BME280;6136;47.032;15.398;2022-12-29T03:04:19;97731.38;;;-3.06;100.00
12146;BME280;6136;47.032;15.398;2022-12-29T03:06:57;97733.06;;;-3.03;100.00
12146;BME280;6136;47.032;15.398;2022-12-29T03:09:35;97735.69;;;-3.06;100.00
12146;BME280;6136;47.032;15.398;2022-12-29T03:12:11;97736.56;;;-3.06;100.00
12146;BME280;6136;47.032;15.398;2022-12-29T03:14:49;97720.19;;;-3.13;100.00
12146;BME280;6136;47.032;15.398;2022-12-29T03:17:45;97734.84;;;-3.08;100.00
12146;BME280;6136;47.032;15.398;2022-12-29T03:20:19;97729.66;;;-3.10;100.00
12146;BME280;6136;47.032;15.398;2022-12-29T03:22:58;97715.84;;;-3.09;100.00
12146;BME280;6136;47.032;15.398;2022-12-29T03:25:33;97720.09;;;-3.03;100.00
12146;BME280;6136;47.032;15.398;2022-12-29T03:28:10;97717.56;;;-3.08;100.00
12146;BME280;6136;47.032;15.398;2022-12-29T03:30:44;97708.91;;;-3.08;100.00
12146;BME280;6136;47.032;15.398;2022-12-29T03:33:20;97722.72;;;-3.05;100.00
12146;BME280;6136;47.032;15.398;2022-12-29T03:35:55;97706.22;;;-2.96;100.00
12146;BME280;6136;47.032;15.398;2022-12-29T03:38:32;97710.53;;;-2.94;100.00
12146;BME280;6136;47.032;15.398;2022-12-29T03:41:04;97714.91;;;-3.00;100.00
12146;BME280;6136;47.032;15.398;2022-12-29T03:43:34;97714.00;;;-2.93;100.00
12146;BME280;6136;47.032;15.398;2022-12-29T03:46:02;97710.53;;;-2.94;100.00
12146;BME280;6136;47.032;15.398;2022-12-29T03:48:31;97707.13;;;-2.99;100.00
12146;BME280;6136;47.032;15.398;2022-12-29T03:51:01;97716.63;;;-2.98;100.00
12146;BME280;6136;47.032;15.398;2022-12-29T03:53:31;97726.16;;;-3.03;100.00
12146;BME280;6136;47.032;15.398;2022-12-29T03:56:00;97721.88;;;-3.07;100.00
12146;BME280;6136;47.032;15.398;2022-12-29T03:58:28;97714.09;;;-3.04;100.00
12146;BME280;6136;47.032;15.398;2022-12-29T04:01:09;97721.00;;;-3.06;100.00
12146;BME280;6136;47.032;15.398;2022-12-29T04:03:38;97728.78;;;-3.07;100.00
12146;BME280;6136;47.032;15.398;2022-12-29T04:06:08;97727.06;;;-3.05;100.00
12146;BME280;6136;47.032;15.398;2022-12-29T04:08:45;97714.09;;;-3.04;100.00
12146;BME280;6136;47.032;15.398;2022-12-29T04:11:14;97728.78;;;-3.07;100.00
12146;BME280;6136;47.032;15.398;2022-12-29T04:13:44;97728.75;;;-3.03;100.00
12146;BME280;6136;47.032;15.398;2022-12-29T04:16:17;97735.69;;;-3.09;100.00
12146;BME280;6136;47.032;15.398;2022-12-29T04:18:45;97714.16;;;-3.13;100.00
12146;BME280;6136;47.032;15.398;2022-12-29T04:21:15;97721.06;;;-3.12;100.00
12146;BME280;6136;47.032;15.398;2022-12-29T04:23:44;97725.34;;;-3.09;100.00
12146;BME280;6136;47.032;15.398;2022-12-29T04:26:12;97710.59;;;-2.97;100.00
12146;BME280;6136;47.032;15.398;2022-12-29T04:29:07;97713.19;;;-3.01;100.00
12146;BME280;6136;47.032;15.398;2022-12-29T04:31:45;97703.69;;;-3.02;100.00
12146;BME280;6136;47.032;15.398;2022-12-29T04:34:13;97708.03;;;-3.04;100.00
12146;BME280;6136;47.032;15.398;2022-12-29T04:36:47;97705.50;;;-3.12;100.00
12146;BME280;6136;47.032;15.398;2022-12-29T04:39:16;97714.22;;;-3.27;100.00
12146;BME280;6136;47.032;15.398;2022-12-29T04:41:44;97707.28;;;-3.23;100.00
12146;BME280;6136;47.032;15.398;2022-12-29T04:44:17;97710.72;;;-3.21;100.00
12146;BME280;6136;47.032;15.398;2022-12-29T04:47:05;97710.75;;;-3.24;100.00
12146;BME280;6136;47.032;15.398;2022-12-29T04:50:00;97711.59;;;-3.21;100.00
12146;BME280;6136;47.032;15.398;2022-12-29T04:52:44;97717.66;;;-3.20;100.00
12146;BME280;6136;47.032;15.398;2022-12-29T04:55:13;97722.78;;;-3.17;100.00
12146;BME280;6136;47.032;15.398;2022-12-29T04:57:44;97715.91;;;-3.21;100.00
12146;BME280;6136;47.032;15.398;2022-12-29T05:00:16;97718.50;;;-3.23;100.00
12146;BME280;6136;47.032;15.398;2022-12-29T05:02:45;97716.75;;;-3.18;100.00
12146;BME280;6136;47.032;15.398;2022-12-29T05:05:15;97704.66;;;-3.16;100.00
12146;BME280;6136;47.032;15.398;2022-12-29T05:07:48;97704.66;;;-3.14;100.00
12146;BME280;6136;47.032;15.398;2022-12-29T05:10:17;97709.78;;;-3.09;100.00
12146;BME280;6136;47.032;15.398;2022-12-29T05:12:47;97712.38;;;-3.11;100.00
12146;BME280;6136;47.032;15.398;2022-12-29T05:15:16;97716.72;;;-3.11;100.00
12146;BME280;6136;47.032;15.398;2022-12-29T05:17:45;97724.56;;;-3.19;100.00
12146;BME280;6136;47.032;15.398;2022-12-29T05:20:13;97728.91;;;-3.27;100.00
12146;BME280;6136;47.032;15.398;2022-12-29T05:22:41;97733.22;;;-3.29;100.00
12146;BME280;6136;47.032;15.398;2022-12-29T05:25:11;97734.97;;;-3.28;100.00
12146;BME280;6136;47.032;15.398;2022-12-29T05:27:56;97737.56;;;-3.31;100.00
12146;BME280;6136;47.032;15.398;2022-12-29T05:30:48;97733.28;;;-3.37;100.00
12146;BME280;6136;47.032;15.398;2022-12-29T05:33:18;97723.78;;;-3.39;100.00
12146;BME280;6136;47.032;15.398;2022-12-29T05:35:48;97722.91;;;-3.40;100.00
12146;BME280;6136;47.032;15.398;2022-12-29T05:38:17;97721.22;;;-3.45;100.00
12146;BME280;6136;47.032;15.398;2022-12-29T05:40:47;97722.09;;;-3.45;100.00
12146;BME280;6136;47.032;15.398;2022-12-29T05:43:38;97729.03;;;-3.48;100.00
12146;BME280;6136;47.032;15.398;2022-12-29T05:46:13;97724.66;;;-3.42;100.00
12146;BME280;6136;47.032;15.398;2022-12-29T05:49:05;97722.94;;;-3.41;100.00
12146;BME280;6136;47.032;15.398;2022-12-29T05:51:49;97727.22;;;-3.37;100.00
12146;BME280;6136;47.032;15.398;2022-12-29T05:54:18;97737.59;;;-3.37;100.00
12146;BME280;6136;47.032;15.398;2022-12-29T05:56:49;97739.31;;;-3.39;100.00
12146;BME280;6136;47.032;15.398;2022-12-29T05:59:17;97743.66;;;-3.41;100.00
12146;BME280;6136;47.032;15.398;2022-12-29T06:01:46;97738.44;;;-3.40;100.00
12146;BME280;6136;47.032;15.398;2022-12-29T06:04:15;97738.50;;;-3.44;100.00
12146;BME280;6136;47.032;15.398;2022-12-29T06:06:43;97748.84;;;-3.47;100.00
12146;BME280;6136;47.032;15.398;2022-12-29T06:09:20;97744.56;;;-3.48;100.00
12146;BME280;6136;47.032;15.398;2022-12-29T06:11:50;97758.38;;;-3.49;100.00
12146;BME280;6136;47.032;15.398;2022-12-29T06:14:18;97749.75;;;-3.48;100.00
12146;BME280;6136;47.032;15.398;2022-12-29T06:16:47;97754.91;;;-3.52;100.00
12146;BME280;6136;47.032;15.398;2022-12-29T06:19:16;97755.78;;;-3.53;100.00
12146;BME280;6136;47.032;15.398;2022-12-29T06:21:45;97746.28;;;-3.55;100.00
12146;BME280;6136;47.032;15.398;2022-12-29T06:24:13;97751.47;;;-3.49;100.00
12146;BME280;6136;47.032;15.398;2022-12-29T06:26:41;97750.56;;;-3.48;100.00
12146;BME280;6136;47.032;15.398;2022-12-29T06:29:11;97754.88;;;-3.44;100.00
12146;BME280;6136;47.032;15.398;2022-12-29T06:31:43;97758.34;;;-3.48;100.00
12146;BME280;6136;47.032;15.398;2022-12-29T06:34:13;97759.22;;;-3.44;100.00
12146;BME280;6136;47.032;15.398;2022-12-29T06:36:41;97757.47;;;-3.42;100.00
12146;BME280;6136;47.032;15.398;2022-12-29T06:39:10;97757.47;;;-3.42;100.00
12146;BME280;6136;47.032;15.398;2022-12-29T06:41:46;97759.22;;;-3.41;100.00
12146;BME280;6136;47.032;15.398;2022-12-29T06:44:42;97764.38;;;-3.44;100.00
12146;BME280;6136;47.032;15.398;2022-12-29T06:47:11;97766.97;;;-3.46;100.00
12146;BME280;6136;47.032;15.398;2022-12-29T06:49:39;97767.00;;;-3.49;100.00
12146;BME280;6136;47.032;15.398;2022-12-29T06:52:07;97763.59;;;-3.57;100.00
12146;BME280;6136;47.032;15.398;2022-12-29T06:54:39;97770.47;;;-3.52;100.00
12146;BME280;6136;47.032;15.398;2022-12-29T06:57:07;97770.47;;;-3.53;100.00
12146;BME280;6136;47.032;15.398;2022-12-29T06:59:35;97773.91;;;-3.56;100.00
12146;BME280;6136;47.032;15.398;2022-12-29T07:02:05;97776.50;;;-3.49;100.00
12146;BME280;6136;47.032;15.398;2022-12-29T07:04:34;97769.59;;;-3.50;100.00
12146;BME280;6136;47.032;15.398;2022-12-29T07:07:02;97776.44;;;-3.40;100.00
12146;BME280;6136;47.032;15.398;2022-12-29T07:09:30;97766.06;;;-3.28;100.00
12146;BME280;6136;47.032;15.398;2022-12-29T07:11:59;97775.50;;;-3.21;100.00
12146;BME280;6136;47.032;15.398;2022-12-29T07:14:27;97774.56;;;-3.05;100.00
12146;BME280;6136;47.032;15.398;2022-12-29T07:16:55;97775.34;;;-2.89;100.00
12146;BME280;6136;47.032;15.398;2022-12-29T07:19:25;97768.41;;;-2.87;100.00
12146;BME280;6136;47.032;15.398;2022-12-29T07:21:54;97769.19;;;-2.73;100.00
12146;BME280;6136;47.032;15.398;2022-12-29T07:24:22;97770.78;;;-2.55;100.00
12146;BME280;6136;47.032;15.398;2022-12-29T07:26:52;97772.41;;;-2.41;100.00
12146;BME280;6136;47.032;15.398;2022-12-29T07:29:20;97774.75;;;-2.15;100.00
12146;BME280;6136;47.032;15.398;2022-12-29T07:31:49;97766.75;;;-1.90;100.00
12146;BME280;6136;47.032;15.398;2022-12-29T07:34:17;97777.88;;;-1.76;100.00
12146;BME280;6136;47.032;15.398;2022-12-29T07:36:47;97785.41;;;-1.55;100.00
12146;BME280;6136;47.032;15.398;2022-12-29T07:39:15;97785.41;;;-1.55;100.00
12146;BME280;6136;47.032;15.398;2022-12-29T07:41:44;97789.81;;;-1.62;100.00
12146;BME280;6136;47.032;15.398;2022-12-29T07:44:16;97782.97;;;-1.69;100.00
12146;BME280;6136;47.032;15.398;2022-12-29T07:47:17;97780.38;;;-1.70;100.00
12146;BME280;6136;47.032;15.398;2022-12-29T07:49:45;97783.97;;;-1.80;100.00
12146;BME280;6136;47.032;15.398;2022-12-29T07:52:15;97789.09;;;-1.74;100.00
12146;BME280;6136;47.032;15.398;2022-12-29T07:54:43;97776.88;;;-1.63;100.00
12146;BME280;6136;47.032;15.398;2022-12-29T07:57:12;97788.81;;;-1.47;100.00
12146;BME280;6136;47.032;15.398;2022-12-29T07:59:40;97781.66;;;-1.27;100.00
12146;BME280;6136;47.032;15.398;2022-12-29T08:02:10;97787.38;;;-1.00;100.00
12146;BME280;6136;47.032;15.398;2022-12-29T08:04:39;97786.00;;;-0.66;100.00
12146;BME280;6136;47.032;15.398;2022-12-29T08:07:07;97784.88;;;-0.45;100.00
12146;BME280;6136;47.032;15.398;2022-12-29T08:09:37;97775.03;;;-0.29;100.00
12146;BME280;6136;47.032;15.398;2022-12-29T08:12:05;97777.84;;;0.12;100.00
12146;BME280;6136;47.032;15.398;2022-12-29T08:14:34;97782.69;;;0.30;100.00
12146;BME280;6136;47.032;15.398;2022-12-29T08:17:02;97772.78;;;0.51;100.00
12146;BME280;6136;47.032;15.398;2022-12-29T08:19:30;97778.63;;;0.62;100.00
12146;BME280;6136;47.032;15.398;2022-12-29T08:21:58;97782.38;;;0.92;100.00
12146;BME280;6136;47.032;15.398;2022-12-29T08:24:27;97776.84;;;1.07;100.00
12146;BME280;6136;47.032;15.398;2022-12-29T08:26:56;97771.06;;;1.33;100.00
12146;BME280;6136;47.032;15.398;2022-12-29T08:29:32;97763.09;;;1.39;100.00
12146;BME280;6136;47.032;15.398;2022-12-29T08:32:00;97770.66;;;1.49;100.00
12146;BME280;6136;47.032;15.398;2022-12-29T08:34:30;97776.72;;;1.87;100.00
12146;BME280;6136;47.032;15.398;2022-12-29T08:36:58;97776.44;;;1.99;100.00
12146;BME280;6136;47.032;15.398;2022-12-29T08:39:27;97776.06;;;2.14;100.00
12146;BME280;6136;47.032;15.398;2022-12-29T08:41:56;97774.00;;;2.25;100.00
12146;BME280;6136;47.032;15.398;2022-12-29T08:44:25;97774.41;;;2.44;100.00
12146;BME280;6136;47.032;15.398;2022-12-29T08:46:53;97770.94;;;2.74;100.00
12146;BME280;6136;47.032;15.398;2022-12-29T08:49:21;97781.78;;;2.92;100.00
12146;BME280;6136;47.032;15.398;2022-12-29T08:51:50;97765.22;;;3.21;99.76
12146;BME280;6136;47.032;15.398;2022-12-29T08:54:18;97767.06;;;3.46;97.63
12146;BME280;6136;47.032;15.398;2022-12-29T08:56:46;97770.06;;;3.62;97.85
12146;BME280;6136;47.032;15.398;2022-12-29T08:59:17;97773.78;;;3.83;96.15
12146;BME280;6136;47.032;15.398;2022-12-29T09:01:47;97782.34;;;3.88;94.52
12146;BME280;6136;47.032;15.398;2022-12-29T09:04:15;97790.66;;;4.27;93.00
12146;BME280;6136;47.032;15.398;2022-12-29T09:06:44;97785.84;;;4.40;93.79
12146;BME280;6136;47.032;15.398;2022-12-29T09:09:13;97779.16;;;4.56;90.14
12146;BME280;6136;47.032;15.398;2022-12-29T09:11:42;97785.44;;;4.77;90.61
12146;BME280;6136;47.032;15.398;2022-12-29T09:14:10;97783.97;;;4.93;89.25
12146;BME280;6136;47.032;15.398;2022-12-29T09:16:40;97774.66;;;5.07;86.89
12146;BME280;6136;47.032;15.398;2022-12-29T09:19:26;97765.56;;;5.18;86.60
12146;BME280;6136;47.032;15.398;2022-12-29T09:21:55;97773.03;;;5.50;85.05
12146;BME280;6136;47.032;15.398;2022-12-29T09:24:23;97764.63;;;5.85;85.75
12146;BME280;6136;47.032;15.398;2022-12-29T09:26:52;97771.72;;;6.27;82.97
12146;BME280;6136;47.032;15.398;2022-12-29T09:29:20;97772.91;;;6.40;82.83
12146;BME280;6136;47.032;15.398;2022-12-29T09:31:50;97768.81;;;6.53;81.76
12146;BME280;6136;47.032;15.398;2022-12-29T09:34:18;97766.59;;;6.65;79.62
12146;BME280;6136;47.032;15.398;2022-12-29T09:36:46;97770.59;;;6.93;78.62
12146;BME280;6136;47.032;15.398;2022-12-29T09:39:15;97750.88;;;7.02;80.68
12146;BME280;6136;47.032;15.398;2022-12-29T09:41:47;97752.88;;;7.34;76.67
12146;BME280;6136;47.032;15.398;2022-12-29T09:44:23;97735.91;;;7.59;78.66
12146;BME280;6136;47.032;15.398;2022-12-29T09:46:56;97741.69;;;7.67;75.20
12146;BME280;6136;47.032;15.398;2022-12-29T09:49:31;97746.09;;;7.85;74.51
12146;BME280;6136;47.032;15.398;2022-12-29T09:52:12;97747.28;;;7.97;73.51
12146;BME280;6136;47.032;15.398;2022-12-29T09:54:49;97742.22;;;8.09;71.76
12146;BME280;6136;47.032;15.398;2022-12-29T09:57:32;97729.50;;;8.36;69.46
12146;BME280;6136;47.032;15.398;2022-12-29T10:00:06;97725.09;;;8.52;68.50
12146;BME280;6136;47.032;15.398;2022-12-29T10:02:43;97723.63;;;8.64;69.41
12146;BME280;6136;47.032;15.398;2022-12-29T10:05:23;97720.88;;;9.16;69.32
12146;BME280;6136;47.032;15.398;2022-12-29T10:08:03;97715.28;;;9.05;69.63
12146;BME280;6136;47.032;15.398;2022-12-29T10:10:48;97714.38;;;9.06;68.09
12146;BME280;6136;47.032;15.398;2022-12-29T10:13:30;97708.78;;;9.43;64.91
12146;BME280;6136;47.032;15.398;2022-12-29T10:16:09;97701.47;;;9.48;63.33
12146;BME280;6136;47.032;15.398;2022-12-29T10:21:48;97704.56;;;9.86;63.96
12146;BME280;6136;47.032;15.398;2022-12-29T10:24:21;97708.53;;;10.09;61.63
12146;BME280;6136;47.032;15.398;2022-12-29T10:26:51;97697.28;;;10.21;61.25
12146;BME280;6136;47.032;15.398;2022-12-29T10:29:21;97692.41;;;10.29;62.32
12146;BME280;6136;47.032;15.398;2022-12-29T10:31:55;97690.19;;;10.66;60.62
12146;BME280;6136;47.032;15.398;2022-12-29T10:34:28;97695.28;;;10.55;60.75
12146;BME280;6136;47.032;15.398;2022-12-29T10:37:02;97698.50;;;10.60;60.67
12146;BME280;6136;47.032;15.398;2022-12-29T10:39:37;97688.44;;;10.36;61.92
12146;BME280;6136;47.032;15.398;2022-12-29T10:42:11;97688.03;;;10.28;62.55
12146;BME280;6136;47.032;15.398;2022-12-29T10:44:43;97686.22;;;10.59;61.30
12146;BME280;6136;47.032;15.398;2022-12-29T10:47:14;97684.88;;;10.52;62.65
12146;BME280;6136;47.032;15.398;2022-12-29T10:49:47;97688.50;;;10.79;61.34
12146;BME280;6136;47.032;15.398;2022-12-29T10:52:17;97683.50;;;10.74;60.68
12146;BME280;6136;47.032;15.398;2022-12-29T10:54:51;97679.31;;;10.99;59.42
12146;BME280;6136;47.032;15.398;2022-12-29T10:57:26;97683.19;;;11.07;57.93
12146;BME280;6136;47.032;15.398;2022-12-29T10:59:55;97686.03;;;11.18;56.34
12146;BME280;6136;47.032;15.398;2022-12-29T11:02:50;97682.50;;;11.32;57.29
12146;BME280;6136;47.032;15.398;2022-12-29T11:05:28;97672.75;;;11.33;57.47
12146;BME280;6136;47.032;15.398;2022-12-29T11:08:01;97664.19;;;11.56;56.64
12146;BME280;6136;47.032;15.398;2022-12-29T11:10:35;97668.97;;;11.63;56.47
12146;BME280;6136;47.032;15.398;2022-12-29T11:13:12;97667.91;;;11.80;56.18
12146;BME280;6136;47.032;15.398;2022-12-29T11:15:42;97668.13;;;11.77;55.74
12146;BME280;6136;47.032;15.398;2022-12-29T11:18:19;97661.41;;;12.11;55.55
12146;BME280;6136;47.032;15.398;2022-12-29T11:20:51;97668.47;;;11.85;55.36
12146;BME280;6136;47.032;15.398;2022-12-29T11:23:30;97653.50;;;11.84;55.21
12146;BME280;6136;47.032;15.398;2022-12-29T11:26:14;97653.22;;;12.01;55.21
12146;BME280;6136;47.032;15.398;2022-12-29T11:28:45;97656.31;;;12.08;55.33
12146;BME280;6136;47.032;15.398;2022-12-29T11:31:17;97645.97;;;12.43;53.26
12146;BME280;6136;47.032;15.398;2022-12-29T11:33:47;97643.63;;;12.38;52.91
12146;BME280;6136;47.032;15.398;2022-12-29T11:36:19;97656.28;;;12.48;54.40
12146;BME280;6136;47.032;15.398;2022-12-29T11:38:50;97652.56;;;12.63;54.00
12146;BME280;6136;47.032;15.398;2022-12-29T11:41:21;97655.13;;;12.64;53.42
12146;BME280;6136;47.032;15.398;2022-12-29T11:43:52;97650.00;;;12.61;52.12
12146;BME280;6136;47.032;15.398;2022-12-29T11:46:24;97650.88;;;12.74;52.82
12146;BME280;6136;47.032;15.398;2022-12-29T11:48:53;97648.81;;;12.53;52.46
12146;BME280;6136;47.032;15.398;2022-12-29T11:51:28;97652.47;;;12.52;52.61
12146;BME280;6136;47.032;15.398;2022-12-29T11:53:59;97647.16;;;12.77;51.81
12146;BME280;6136;47.032;15.398;2022-12-29T11:56:37;97648.97;;;12.89;51.31
12146;BME280;6136;47.032;15.398;2022-12-29T11:59:42;97636.91;;;13.09;50.39
12146;BME280;6136;47.032;15.398;2022-12-29T12:05:22;97636.75;;;13.36;50.51
12146;BME280;6136;47.032;15.398;2022-12-29T12:07:59;97638.22;;;13.52;53.91
12146;BME280;6136;47.032;15.398;2022-12-29T12:10:33;97638.78;;;13.69;50.57
12146;BME280;6136;47.032;15.398;2022-12-29T12:13:14;97626.56;;;14.01;50.23
12146;BME280;6136;47.032;15.398;2022-12-29T12:15:51;97636.22;;;13.67;51.02
12146;BME280;6136;47.032;15.398;2022-12-29T12:18:32;97624.91;;;13.76;49.66
12146;BME280;6136;47.032;15.398;2022-12-29T12:21:08;97620.72;;;13.85;51.36
12146;BME280;6136;47.032;15.398;2022-12-29T12:23:48;97625.22;;;13.95;51.07
12146;BME280;6136;47.032;15.398;2022-12-29T12:26:26;97622.13;;;13.78;49.94
12146;BME280;6136;47.032;15.398;2022-12-29T12:28:59;97609.34;;;13.94;51.41
12146;BME280;6136;47.032;15.398;2022-12-29T12:31:41;97613.34;;;13.88;49.63
12146;BME280;6136;47.032;15.398;2022-12-29T12:34:16;97610.50;;;13.55;50.33
12146;BME280;6136;47.032;15.398;2022-12-29T12:36:58;97603.59;;;14.00;49.26
12146;BME280;6136;47.032;15.398;2022-12-29T12:39:39;97603.22;;;14.40;50.38
12146;BME280;6136;47.032;15.398;2022-12-29T12:42:23;97600.75;;;14.25;49.72
12146;BME280;6136;47.032;15.398;2022-12-29T12:45:01;97591.28;;;14.21;48.87
12146;BME280;6136;47.032;15.398;2022-12-29T12:47:47;97595.44;;;14.36;47.88
12146;BME280;6136;47.032;15.398;2022-12-29T12:50:40;97596.81;;;14.42;48.14
12146;BME280;6136;47.032;15.398;2022-12-29T12:53:36;97595.88;;;14.65;46.57
12146;BME280;6136;47.032;15.398;2022-12-29T12:56:35;97599.38;;;14.44;47.42
12146;BME280;6136;47.032;15.398;2022-12-29T12:59:13;97597.22;;;14.25;46.74
12146;BME280;6136;47.032;15.398;2022-12-29T13:01:51;97597.91;;;14.16;46.87
12146;BME280;6136;47.032;15.398;2022-12-29T13:07:27;97604.13;;;14.62;45.70
12146;BME280;6136;47.032;15.398;2022-12-29T13:10:19;97596.72;;;14.55;46.30
12146;BME280;6136;47.032;15.398;2022-12-29T13:12:55;97596.41;;;14.35;46.31
12146;BME280;6136;47.032;15.398;2022-12-29T13:15:39;97590.69;;;13.83;48.27
12146;BME280;6136;47.032;15.398;2022-12-29T13:18:20;97597.19;;;13.79;48.49
12146;BME280;6136;47.032;15.398;2022-12-29T13:20:58;97600.19;;;14.09;48.39
12146;BME280;6136;47.032;15.398;2022-12-29T13:23:32;97596.72;;;14.55;47.09
12146;BME280;6136;47.032;15.398;2022-12-29T13:26:10;97601.22;;;14.30;48.49
12146;BME280;6136;47.032;15.398;2022-12-29T13:28:49;97593.97;;;14.21;48.35
12146;BME280;6136;47.032;15.398;2022-12-29T13:31:28;97594.44;;;14.26;47.92
12146;BME280;6136;47.032;15.398;2022-12-29T13:34:04;97590.94;;;14.26;48.75
12146;BME280;6136;47.032;15.398;2022-12-29T13:36:40;97598.50;;;14.08;48.69
12146;BME280;6136;47.032;15.398;2022-12-29T13:39:13;97606.06;;;13.43;51.08
12146;BME280;6136;47.032;15.398;2022-12-29T13:41:49;97598.66;;;14.18;49.12
12146;BME280;6136;47.032;15.398;2022-12-29T13:44:23;97600.91;;;14.00;50.02